sensor_id;sensor_type;location;lat;lon;timestamp;P1;durP1;ratioP1;P2;durP2;ratioP2
52564;SDS011;38460;53.106;7.004;2022-09-02T00:00:35;3.00;;;1.92;;
52564;SDS011;38460;53.106;7.004;2022-09-02T00:03:09;3.58;;;1.80;;
52564;SDS011;38460;53.106;7.004;2022-09-02T00:05:35;1.88;;;1.40;;
52564;SDS011;38460;53.106;7.004;2022-09-02T00:08:01;2.65;;;1.50;;
52564;SDS011;38460;53.106;7.004;2022-09-02T00:10:28;3.40;;;2.00;;
52564;SDS011;38460;53.106;7.004;2022-09-02T00:12:53;5.85;;;1.75;;
52564;SDS011;38460;53.106;7.004;2022-09-02T00:15:19;2.53;;;1.65;;
52564;SDS011;38460;53.106;7.004;2022-09-02T00:17:45;4.50;;;1.60;;
52564;SDS011;38460;53.106;7.004;2022-09-02T00:20:10;3.80;;;1.40;;
52564;SDS011;38460;53.106;7.004;2022-09-02T00:22:36;3.40;;;2.00;;
52564;SDS011;38460;53.106;7.004;2022-09-02T00:25:02;2.03;;;1.48;;
52564;SDS011;38460;53.106;7.004;2022-09-02T00:27:28;2.92;;;1.70;;
52564;SDS011;38460;53.106;7.004;2022-09-02T00:29:54;3.30;;;1.58;;
52564;SDS011;38460;53.106;7.004;2022-09-02T00:32:20;12.27;;;2.53;;
52564;SDS011;38460;53.106;7.004;2022-09-02T00:34:46;3.58;;;1.88;;
52564;SDS011;38460;53.106;7.004;2022-09-02T00:37:12;2.80;;;1.60;;
52564;SDS011;38460;53.106;7.004;2022-09-02T00:39:38;2.10;;;1.60;;
52564;SDS011;38460;53.106;7.004;2022-09-02T00:42:04;2.15;;;1.67;;
52564;SDS011;38460;53.106;7.004;2022-09-02T00:44:31;2.10;;;1.50;;
52564;SDS011;38460;53.106;7.004;2022-09-02T00:46:58;3.00;;;1.70;;
52564;SDS011;38460;53.106;7.004;2022-09-02T00:49:25;4.43;;;1.95;;
52564;SDS011;38460;53.106;7.004;2022-09-02T00:54:34;3.22;;;1.85;;
52564;SDS011;38460;53.106;7.004;2022-09-02T00:57:06;3.10;;;1.80;;
52564;SDS011;38460;53.106;7.004;2022-09-02T00:59:48;2.42;;;1.63;;
52564;SDS011;38460;53.106;7.004;2022-09-02T01:02:30;2.78;;;1.60;;
52564;SDS011;38460;53.106;7.004;2022-09-02T01:04:57;4.13;;;1.80;;
52564;SDS011;38460;53.106;7.004;2022-09-02T01:07:25;3.55;;;1.60;;
52564;SDS011;38460;53.106;7.004;2022-09-02T01:09:54;2.83;;;1.85;;
52564;SDS011;38460;53.106;7.004;2022-09-02T01:12:21;3.03;;;1.65;;
52564;SDS011;38460;53.106;7.004;2022-09-02T01:14:49;4.65;;;1.90;;
52564;SDS011;38460;53.106;7.004;2022-09-02T01:17:15;3.83;;;1.80;;
52564;SDS011;38460;53.106;7.004;2022-09-02T01:19:43;4.70;;;1.70;;
52564;SDS011;38460;53.106;7.004;2022-09-02T01:22:14;2.83;;;1.88;;
52564;SDS011;38460;53.106;7.004;2022-09-02T01:24:41;3.70;;;1.85;;
52564;SDS011;38460;53.106;7.004;2022-09-02T01:27:07;2.83;;;1.50;;
52564;SDS011;38460;53.106;7.004;2022-09-02T01:29:33;3.60;;;2.03;;
52564;SDS011;38460;53.106;7.004;2022-09-02T01:31:59;1.95;;;1.45;;
52564;SDS011;38460;53.106;7.004;2022-09-02T01:34:24;2.33;;;1.52;;
52564;SDS011;38460;53.106;7.004;2022-09-02T01:36:50;4.03;;;1.73;;
52564;SDS011;38460;53.106;7.004;2022-09-02T01:39:16;3.75;;;1.90;;
52564;SDS011;38460;53.106;7.004;2022-09-02T01:41:42;3.22;;;1.90;;
52564;SDS011;38460;53.106;7.004;2022-09-02T01:44:08;2.72;;;1.58;;
52564;SDS011;38460;53.106;7.004;2022-09-02T01:46:34;3.42;;;1.73;;
52564;SDS011;38460;53.106;7.004;2022-09-02T01:49:00;3.53;;;2.05;;
52564;SDS011;38460;53.106;7.004;2022-09-02T01:51:26;3.92;;;1.70;;
52564;SDS011;38460;53.106;7.004;2022-09-02T01:53:52;3.25;;;1.60;;
52564;SDS011;38460;53.106;7.004;2022-09-02T01:56:18;2.75;;;1.70;;
52564;SDS011;38460;53.106;7.004;2022-09-02T01:58:43;3.45;;;1.90;;
52564;SDS011;38460;53.106;7.004;2022-09-02T02:01:09;2.53;;;2.03;;
52564;SDS011;38460;53.106;7.004;2022-09-02T02:03:35;3.15;;;1.75;;
52564;SDS011;38460;53.106;7.004;2022-09-02T02:06:01;2.20;;;1.80;;
52564;SDS011;38460;53.106;7.004;2022-09-02T02:08:36;3.30;;;1.88;;
52564;SDS011;38460;53.106;7.004;2022-09-02T02:11:02;2.67;;;1.70;;
52564;SDS011;38460;53.106;7.004;2022-09-02T02:13:29;4.07;;;1.60;;
52564;SDS011;38460;53.106;7.004;2022-09-02T02:15:55;2.60;;;1.70;;
52564;SDS011;38460;53.106;7.004;2022-09-02T02:18:20;2.65;;;1.60;;
52564;SDS011;38460;53.106;7.004;2022-09-02T02:20:46;3.42;;;1.85;;
52564;SDS011;38460;53.106;7.004;2022-09-02T02:23:12;2.38;;;1.75;;
52564;SDS011;38460;53.106;7.004;2022-09-02T02:25:38;3.45;;;1.80;;
52564;SDS011;38460;53.106;7.004;2022-09-02T02:28:04;5.03;;;1.70;;
52564;SDS011;38460;53.106;7.004;2022-09-02T02:30:30;2.70;;;1.95;;
52564;SDS011;38460;53.106;7.004;2022-09-02T02:32:56;3.17;;;2.13;;
52564;SDS011;38460;53.106;7.004;2022-09-02T02:35:22;3.00;;;1.88;;
52564;SDS011;38460;53.106;7.004;2022-09-02T02:37:48;3.50;;;1.70;;
52564;SDS011;38460;53.106;7.004;2022-09-02T02:40:18;2.50;;;1.83;;
52564;SDS011;38460;53.106;7.004;2022-09-02T02:42:46;3.55;;;2.33;;
52564;SDS011;38460;53.106;7.004;2022-09-02T02:45:12;3.45;;;1.92;;
52564;SDS011;38460;53.106;7.004;2022-09-02T02:47:39;3.72;;;1.95;;
52564;SDS011;38460;53.106;7.004;2022-09-02T02:50:08;4.03;;;1.92;;
52564;SDS011;38460;53.106;7.004;2022-09-02T02:52:39;2.50;;;1.90;;
52564;SDS011;38460;53.106;7.004;2022-09-02T02:55:06;3.72;;;1.90;;
52564;SDS011;38460;53.106;7.004;2022-09-02T02:57:33;5.47;;;2.08;;
52564;SDS011;38460;53.106;7.004;2022-09-02T03:00:11;3.58;;;2.13;;
52564;SDS011;38460;53.106;7.004;2022-09-02T03:02:39;2.90;;;2.00;;
52564;SDS011;38460;53.106;7.004;2022-09-02T03:05:05;3.08;;;2.08;;
52564;SDS011;38460;53.106;7.004;2022-09-02T03:07:33;2.30;;;1.88;;
52564;SDS011;38460;53.106;7.004;2022-09-02T03:09:58;2.95;;;1.92;;
52564;SDS011;38460;53.106;7.004;2022-09-02T03:12:24;3.08;;;1.80;;
52564;SDS011;38460;53.106;7.004;2022-09-02T03:14:50;3.30;;;1.80;;
52564;SDS011;38460;53.106;7.004;2022-09-02T03:17:17;2.22;;;1.90;;
52564;SDS011;38460;53.106;7.004;2022-09-02T03:19:43;2.58;;;1.77;;
52564;SDS011;38460;53.106;7.004;2022-09-02T03:22:09;3.20;;;2.08;;
52564;SDS011;38460;53.106;7.004;2022-09-02T03:24:36;2.95;;;2.10;;
52564;SDS011;38460;53.106;7.004;2022-09-02T03:27:03;2.78;;;1.90;;
52564;SDS011;38460;53.106;7.004;2022-09-02T03:29:29;3.22;;;1.80;;
52564;SDS011;38460;53.106;7.004;2022-09-02T03:31:55;3.20;;;1.88;;
52564;SDS011;38460;53.106;7.004;2022-09-02T03:34:21;3.78;;;2.20;;
52564;SDS011;38460;53.106;7.004;2022-09-02T03:36:47;3.88;;;1.98;;
52564;SDS011;38460;53.106;7.004;2022-09-02T03:39:13;2.70;;;1.90;;
52564;SDS011;38460;53.106;7.004;2022-09-02T03:41:39;3.28;;;2.10;;
52564;SDS011;38460;53.106;7.004;2022-09-02T03:44:05;2.80;;;2.30;;
52564;SDS011;38460;53.106;7.004;2022-09-02T03:46:32;3.58;;;2.15;;
52564;SDS011;38460;53.106;7.004;2022-09-02T03:48:59;3.05;;;2.10;;
52564;SDS011;38460;53.106;7.004;2022-09-02T03:51:25;2.67;;;1.92;;
52564;SDS011;38460;53.106;7.004;2022-09-02T03:53:52;2.90;;;2.10;;
52564;SDS011;38460;53.106;7.004;2022-09-02T03:56:19;3.92;;;2.13;;
52564;SDS011;38460;53.106;7.004;2022-09-02T03:58:47;3.67;;;1.80;;
52564;SDS011;38460;53.106;7.004;2022-09-02T04:01:14;3.42;;;2.30;;
52564;SDS011;38460;53.106;7.004;2022-09-02T04:03:43;3.28;;;2.05;;
52564;SDS011;38460;53.106;7.004;2022-09-02T04:06:09;2.85;;;1.90;;
52564;SDS011;38460;53.106;7.004;2022-09-02T04:08:37;2.95;;;2.03;;
52564;SDS011;38460;53.106;7.004;2022-09-02T04:11:04;2.85;;;1.88;;
52564;SDS011;38460;53.106;7.004;2022-09-02T04:13:32;3.08;;;2.00;;
52564;SDS011;38460;53.106;7.004;2022-09-02T04:15:58;2.70;;;2.03;;
52564;SDS011;38460;53.106;7.004;2022-09-02T04:18:24;2.92;;;2.00;;
52564;SDS011;38460;53.106;7.004;2022-09-02T04:20:50;3.13;;;2.20;;
52564;SDS011;38460;53.106;7.004;2022-09-02T04:23:15;4.82;;;2.20;;
52564;SDS011;38460;53.106;7.004;2022-09-02T04:25:42;3.28;;;2.45;;
52564;SDS011;38460;53.106;7.004;2022-09-02T04:28:08;2.72;;;2.03;;
52564;SDS011;38460;53.106;7.004;2022-09-02T04:30:37;3.28;;;1.80;;
52564;SDS011;38460;53.106;7.004;2022-09-02T04:33:03;2.80;;;1.98;;
52564;SDS011;38460;53.106;7.004;2022-09-02T04:35:29;5.95;;;2.13;;
52564;SDS011;38460;53.106;7.004;2022-09-02T04:37:55;2.45;;;2.10;;
52564;SDS011;38460;53.106;7.004;2022-09-02T04:40:21;3.05;;;2.08;;
52564;SDS011;38460;53.106;7.004;2022-09-02T04:42:48;3.47;;;1.80;;
52564;SDS011;38460;53.106;7.004;2022-09-02T04:45:13;4.25;;;2.15;;
52564;SDS011;38460;53.106;7.004;2022-09-02T04:47:39;3.85;;;2.42;;
52564;SDS011;38460;53.106;7.004;2022-09-02T04:50:05;4.85;;;2.42;;
52564;SDS011;38460;53.106;7.004;2022-09-02T04:52:31;2.92;;;1.88;;
52564;SDS011;38460;53.106;7.004;2022-09-02T04:54:57;3.00;;;1.90;;
52564;SDS011;38460;53.106;7.004;2022-09-02T04:57:23;3.10;;;2.47;;
52564;SDS011;38460;53.106;7.004;2022-09-02T04:59:48;3.03;;;2.45;;
52564;SDS011;38460;53.106;7.004;2022-09-02T05:02:14;6.15;;;2.80;;
52564;SDS011;38460;53.106;7.004;2022-09-02T05:04:40;3.20;;;2.40;;
52564;SDS011;38460;53.106;7.004;2022-09-02T05:07:05;2.80;;;2.10;;
52564;SDS011;38460;53.106;7.004;2022-09-02T05:09:31;2.78;;;2.10;;
52564;SDS011;38460;53.106;7.004;2022-09-02T05:11:57;3.00;;;1.90;;
52564;SDS011;38460;53.106;7.004;2022-09-02T05:14:28;3.22;;;2.10;;
52564;SDS011;38460;53.106;7.004;2022-09-02T05:16:54;3.65;;;2.30;;
52564;SDS011;38460;53.106;7.004;2022-09-02T05:19:20;2.78;;;2.20;;
52564;SDS011;38460;53.106;7.004;2022-09-02T05:21:49;4.25;;;2.00;;
52564;SDS011;38460;53.106;7.004;2022-09-02T05:24:21;3.13;;;2.10;;
52564;SDS011;38460;53.106;7.004;2022-09-02T05:26:47;3.45;;;2.00;;
52564;SDS011;38460;53.106;7.004;2022-09-02T05:29:15;2.90;;;2.15;;
52564;SDS011;38460;53.106;7.004;2022-09-02T05:31:44;3.53;;;2.25;;
52564;SDS011;38460;53.106;7.004;2022-09-02T05:34:11;2.97;;;2.03;;
52564;SDS011;38460;53.106;7.004;2022-09-02T05:36:36;3.33;;;2.30;;
52564;SDS011;38460;53.106;7.004;2022-09-02T05:39:02;3.25;;;2.35;;
52564;SDS011;38460;53.106;7.004;2022-09-02T05:41:29;3.20;;;2.15;;
52564;SDS011;38460;53.106;7.004;2022-09-02T05:43:56;3.88;;;2.08;;
52564;SDS011;38460;53.106;7.004;2022-09-02T05:46:24;4.70;;;2.28;;
52564;SDS011;38460;53.106;7.004;2022-09-02T05:48:50;4.38;;;2.28;;
52564;SDS011;38460;53.106;7.004;2022-09-02T05:51:42;4.45;;;2.42;;
52564;SDS011;38460;53.106;7.004;2022-09-02T05:59:16;4.63;;;2.55;;
52564;SDS011;38460;53.106;7.004;2022-09-02T06:01:43;3.00;;;2.00;;
52564;SDS011;38460;53.106;7.004;2022-09-02T06:04:10;3.08;;;2.17;;
52564;SDS011;38460;53.106;7.004;2022-09-02T06:06:36;3.08;;;1.92;;
52564;SDS011;38460;53.106;7.004;2022-09-02T06:09:07;4.15;;;2.53;;
52564;SDS011;38460;53.106;7.004;2022-09-02T06:11:34;3.17;;;2.40;;
52564;SDS011;38460;53.106;7.004;2022-09-02T06:14:04;4.68;;;2.60;;
52564;SDS011;38460;53.106;7.004;2022-09-02T06:16:33;2.80;;;2.22;;
52564;SDS011;38460;53.106;7.004;2022-09-02T06:18:59;3.33;;;2.50;;
52564;SDS011;38460;53.106;7.004;2022-09-02T06:21:28;4.63;;;2.30;;
52564;SDS011;38460;53.106;7.004;2022-09-02T06:23:54;4.20;;;2.10;;
52564;SDS011;38460;53.106;7.004;2022-09-02T06:26:20;3.90;;;2.17;;
52564;SDS011;38460;53.106;7.004;2022-09-02T06:28:46;5.47;;;2.45;;
52564;SDS011;38460;53.106;7.004;2022-09-02T06:31:13;3.92;;;2.75;;
52564;SDS011;38460;53.106;7.004;2022-09-02T06:33:44;3.03;;;2.13;;
52564;SDS011;38460;53.106;7.004;2022-09-02T06:36:13;4.30;;;2.72;;
52564;SDS011;38460;53.106;7.004;2022-09-02T06:38:41;5.18;;;2.53;;
52564;SDS011;38460;53.106;7.004;2022-09-02T06:41:16;5.88;;;2.67;;
52564;SDS011;38460;53.106;7.004;2022-09-02T06:43:44;3.42;;;2.55;;
52564;SDS011;38460;53.106;7.004;2022-09-02T06:46:13;3.75;;;2.47;;
52564;SDS011;38460;53.106;7.004;2022-09-02T06:48:41;4.10;;;2.72;;
52564;SDS011;38460;53.106;7.004;2022-09-02T06:51:07;3.53;;;2.15;;
52564;SDS011;38460;53.106;7.004;2022-09-02T06:53:33;4.68;;;2.58;;
52564;SDS011;38460;53.106;7.004;2022-09-02T06:55:58;3.80;;;2.60;;
52564;SDS011;38460;53.106;7.004;2022-09-02T06:58:24;5.10;;;2.67;;
52564;SDS011;38460;53.106;7.004;2022-09-02T07:00:50;4.38;;;2.08;;
52564;SDS011;38460;53.106;7.004;2022-09-02T07:03:15;3.65;;;2.20;;
52564;SDS011;38460;53.106;7.004;2022-09-02T07:06:07;4.32;;;2.58;;
52564;SDS011;38460;53.106;7.004;2022-09-02T07:08:38;4.25;;;2.05;;
52564;SDS011;38460;53.106;7.004;2022-09-02T07:11:06;4.75;;;2.17;;
52564;SDS011;38460;53.106;7.004;2022-09-02T07:13:39;4.47;;;2.17;;
52564;SDS011;38460;53.106;7.004;2022-09-02T07:16:05;3.15;;;1.80;;
52564;SDS011;38460;53.106;7.004;2022-09-02T07:18:32;3.80;;;2.17;;
52564;SDS011;38460;53.106;7.004;2022-09-02T07:20:58;4.35;;;1.90;;
52564;SDS011;38460;53.106;7.004;2022-09-02T07:23:25;3.38;;;2.13;;
52564;SDS011;38460;53.106;7.004;2022-09-02T07:25:51;4.47;;;2.08;;
52564;SDS011;38460;53.106;7.004;2022-09-02T07:28:19;2.97;;;1.73;;
52564;SDS011;38460;53.106;7.004;2022-09-02T07:30:45;4.97;;;1.92;;
52564;SDS011;38460;53.106;7.004;2022-09-02T07:33:11;2.95;;;1.67;;
52564;SDS011;38460;53.106;7.004;2022-09-02T07:35:41;4.25;;;1.90;;
52564;SDS011;38460;53.106;7.004;2022-09-02T07:38:08;3.55;;;2.10;;
52564;SDS011;38460;53.106;7.004;2022-09-02T07:40:36;3.85;;;1.80;;
52564;SDS011;38460;53.106;7.004;2022-09-02T07:43:03;4.15;;;1.80;;
52564;SDS011;38460;53.106;7.004;2022-09-02T07:45:31;2.53;;;1.73;;
52564;SDS011;38460;53.106;7.004;2022-09-02T07:47:58;2.83;;;1.73;;
52564;SDS011;38460;53.106;7.004;2022-09-02T07:50:24;4.85;;;1.63;;
52564;SDS011;38460;53.106;7.004;2022-09-02T07:52:54;2.17;;;1.65;;
52564;SDS011;38460;53.106;7.004;2022-09-02T07:55:22;4.32;;;1.58;;
52564;SDS011;38460;53.106;7.004;2022-09-02T07:57:48;2.67;;;1.80;;
52564;SDS011;38460;53.106;7.004;2022-09-02T08:00:15;2.92;;;1.88;;
52564;SDS011;38460;53.106;7.004;2022-09-02T08:02:43;4.10;;;1.70;;
52564;SDS011;38460;53.106;7.004;2022-09-02T08:05:09;6.40;;;1.77;;
52564;SDS011;38460;53.106;7.004;2022-09-02T08:07:35;4.18;;;2.03;;
52564;SDS011;38460;53.106;7.004;2022-09-02T08:10:02;3.05;;;1.80;;
52564;SDS011;38460;53.106;7.004;2022-09-02T08:12:29;3.75;;;1.67;;
52564;SDS011;38460;53.106;7.004;2022-09-02T08:14:55;2.45;;;1.50;;
52564;SDS011;38460;53.106;7.004;2022-09-02T08:17:22;3.90;;;2.20;;
52564;SDS011;38460;53.106;7.004;2022-09-02T08:19:48;3.10;;;1.70;;
52564;SDS011;38460;53.106;7.004;2022-09-02T08:22:14;2.92;;;1.50;;
52564;SDS011;38460;53.106;7.004;2022-09-02T08:24:39;2.40;;;1.83;;
52564;SDS011;38460;53.106;7.004;2022-09-02T08:27:05;3.33;;;1.58;;
52564;SDS011;38460;53.106;7.004;2022-09-02T08:29:31;3.92;;;1.80;;
52564;SDS011;38460;53.106;7.004;2022-09-02T08:31:57;2.97;;;1.63;;
52564;SDS011;38460;53.106;7.004;2022-09-02T08:34:23;4.85;;;1.70;;
52564;SDS011;38460;53.106;7.004;2022-09-02T08:36:49;3.88;;;1.70;;
52564;SDS011;38460;53.106;7.004;2022-09-02T08:39:14;2.95;;;1.70;;
52564;SDS011;38460;53.106;7.004;2022-09-02T08:44:37;4.43;;;1.90;;
52564;SDS011;38460;53.106;7.004;2022-09-02T08:47:05;2.85;;;1.70;;
52564;SDS011;38460;53.106;7.004;2022-09-02T08:49:37;3.58;;;1.80;;
52564;SDS011;38460;53.106;7.004;2022-09-02T08:52:07;4.18;;;1.60;;
52564;SDS011;38460;53.106;7.004;2022-09-02T08:57:19;4.55;;;2.00;;
52564;SDS011;38460;53.106;7.004;2022-09-02T08:59:50;3.92;;;1.55;;
52564;SDS011;38460;53.106;7.004;2022-09-02T09:02:24;3.17;;;2.00;;
52564;SDS011;38460;53.106;7.004;2022-09-02T09:07:55;5.35;;;2.08;;
52564;SDS011;38460;53.106;7.004;2022-09-02T09:21:26;3.13;;;1.60;;
52564;SDS011;38460;53.106;7.004;2022-09-02T09:23:54;5.03;;;1.77;;
52564;SDS011;38460;53.106;7.004;2022-09-02T09:26:26;3.63;;;1.63;;
52564;SDS011;38460;53.106;7.004;2022-09-02T09:28:53;2.65;;;1.83;;
52564;SDS011;38460;53.106;7.004;2022-09-02T09:31:21;3.72;;;1.70;;
52564;SDS011;38460;53.106;7.004;2022-09-02T09:34:14;3.40;;;1.85;;
52564;SDS011;38460;53.106;7.004;2022-09-02T09:39:21;3.78;;;1.90;;
52564;SDS011;38460;53.106;7.004;2022-09-02T09:41:55;3.45;;;2.00;;
52564;SDS011;38460;53.106;7.004;2022-09-02T09:47:03;5.85;;;2.22;;
52564;SDS011;38460;53.106;7.004;2022-09-02T09:49:32;4.75;;;1.73;;
52564;SDS011;38460;53.106;7.004;2022-09-02T09:51:58;5.03;;;1.90;;
52564;SDS011;38460;53.106;7.004;2022-09-02T09:54:24;4.50;;;2.00;;
52564;SDS011;38460;53.106;7.004;2022-09-02T09:56:52;2.88;;;2.28;;
52564;SDS011;38460;53.106;7.004;2022-09-02T10:02:24;4.18;;;1.75;;
52564;SDS011;38460;53.106;7.004;2022-09-02T10:04:52;3.42;;;1.70;;
52564;SDS011;38460;53.106;7.004;2022-09-02T10:07:42;2.60;;;1.38;;
52564;SDS011;38460;53.106;7.004;2022-09-02T10:10:18;2.78;;;1.60;;
52564;SDS011;38460;53.106;7.004;2022-09-02T10:12:47;3.22;;;1.50;;
52564;SDS011;38460;53.106;7.004;2022-09-02T10:15:15;3.63;;;1.75;;
52564;SDS011;38460;53.106;7.004;2022-09-02T10:25:51;4.35;;;2.00;;
52564;SDS011;38460;53.106;7.004;2022-09-02T10:28:44;3.10;;;1.60;;
52564;SDS011;38460;53.106;7.004;2022-09-02T10:37:03;3.92;;;1.90;;
52564;SDS011;38460;53.106;7.004;2022-09-02T10:50:50;2.90;;;1.63;;
52564;SDS011;38460;53.106;7.004;2022-09-02T10:59:35;4.05;;;1.20;;
52564;SDS011;38460;53.106;7.004;2022-09-02T11:02:12;4.22;;;1.33;;
52564;SDS011;38460;53.106;7.004;2022-09-02T11:04:50;4.82;;;1.50;;
52564;SDS011;38460;53.106;7.004;2022-09-02T11:07:27;4.90;;;1.40;;
52564;SDS011;38460;53.106;7.004;2022-09-02T11:12:58;3.25;;;1.38;;
52564;SDS011;38460;53.106;7.004;2022-09-02T11:15:55;2.78;;;1.38;;
52564;SDS011;38460;53.106;7.004;2022-09-02T11:21:21;4.15;;;1.20;;
52564;SDS011;38460;53.106;7.004;2022-09-02T11:26:31;3.28;;;1.30;;
52564;SDS011;38460;53.106;7.004;2022-09-02T11:29:12;3.42;;;1.30;;
52564;SDS011;38460;53.106;7.004;2022-09-02T11:31:43;2.80;;;1.30;;
52564;SDS011;38460;53.106;7.004;2022-09-02T11:37:06;3.80;;;1.45;;
52564;SDS011;38460;53.106;7.004;2022-09-02T11:39:37;5.53;;;1.33;;
52564;SDS011;38460;53.106;7.004;2022-09-02T11:50:47;3.03;;;1.13;;
52564;SDS011;38460;53.106;7.004;2022-09-02T11:53:36;8.65;;;1.95;;
52564;SDS011;38460;53.106;7.004;2022-09-02T11:56:20;2.75;;;1.10;;
52564;SDS011;38460;53.106;7.004;2022-09-02T11:58:53;1.15;;;0.85;;
52564;SDS011;38460;53.106;7.004;2022-09-02T12:01:35;1.75;;;0.90;;
52564;SDS011;38460;53.106;7.004;2022-09-02T12:04:05;2.13;;;1.02;;
52564;SDS011;38460;53.106;7.004;2022-09-02T12:17:33;3.25;;;0.85;;
52564;SDS011;38460;53.106;7.004;2022-09-02T12:20:02;2.33;;;0.82;;
52564;SDS011;38460;53.106;7.004;2022-09-02T12:22:32;1.52;;;0.80;;
52564;SDS011;38460;53.106;7.004;2022-09-02T12:25:04;3.17;;;1.02;;
52564;SDS011;38460;53.106;7.004;2022-09-02T12:27:50;3.08;;;1.00;;
52564;SDS011;38460;53.106;7.004;2022-09-02T12:31:13;1.40;;;0.95;;
52564;SDS011;38460;53.106;7.004;2022-09-02T12:33:55;2.78;;;1.40;;
52564;SDS011;38460;53.106;7.004;2022-09-02T12:37:20;2.22;;;1.10;;
52564;SDS011;38460;53.106;7.004;2022-09-02T12:52:45;3.50;;;0.90;;
52564;SDS011;38460;53.106;7.004;2022-09-02T12:57:53;5.57;;;1.05;;
52564;SDS011;38460;53.106;7.004;2022-09-02T13:05:51;2.03;;;0.90;;
52564;SDS011;38460;53.106;7.004;2022-09-02T13:16:53;3.22;;;1.00;;
52564;SDS011;38460;53.106;7.004;2022-09-02T13:23:02;3.58;;;0.93;;
52564;SDS011;38460;53.106;7.004;2022-09-02T13:34:10;2.00;;;0.80;;
52564;SDS011;38460;53.106;7.004;2022-09-02T13:36:44;3.47;;;0.93;;
52564;SDS011;38460;53.106;7.004;2022-09-02T13:41:49;2.47;;;1.00;;
52564;SDS011;38460;53.106;7.004;2022-09-02T13:44:25;3.78;;;1.17;;
52564;SDS011;38460;53.106;7.004;2022-09-02T13:46:53;1.58;;;0.90;;
52564;SDS011;38460;53.106;7.004;2022-09-02T13:49:31;4.40;;;1.25;;
52564;SDS011;38460;53.106;7.004;2022-09-02T13:52:00;2.30;;;1.35;;
52564;SDS011;38460;53.106;7.004;2022-09-02T13:54:36;2.47;;;0.90;;
52564;SDS011;38460;53.106;7.004;2022-09-02T13:57:04;2.30;;;1.08;;
52564;SDS011;38460;53.106;7.004;2022-09-02T13:59:37;4.18;;;1.00;;
52564;SDS011;38460;53.106;7.004;2022-09-02T14:02:24;2.20;;;1.00;;
52564;SDS011;38460;53.106;7.004;2022-09-02T14:07:45;1.83;;;1.13;;
52564;SDS011;38460;53.106;7.004;2022-09-02T14:10:17;2.67;;;1.20;;
52564;SDS011;38460;53.106;7.004;2022-09-02T14:12:44;2.10;;;1.00;;
52564;SDS011;38460;53.106;7.004;2022-09-02T14:15:12;2.30;;;0.98;;
52564;SDS011;38460;53.106;7.004;2022-09-02T14:17:39;1.95;;;1.05;;
52564;SDS011;38460;53.106;7.004;2022-09-02T14:20:16;2.03;;;1.00;;
52564;SDS011;38460;53.106;7.004;2022-09-02T14:22:54;2.10;;;0.90;;
52564;SDS011;38460;53.106;7.004;2022-09-02T14:25:21;1.67;;;1.20;;
52564;SDS011;38460;53.106;7.004;2022-09-02T14:27:52;2.88;;;0.93;;
52564;SDS011;38460;53.106;7.004;2022-09-02T14:30:38;3.80;;;1.15;;
52564;SDS011;38460;53.106;7.004;2022-09-02T14:33:14;3.58;;;1.23;;
52564;SDS011;38460;53.106;7.004;2022-09-02T14:36:03;1.60;;;1.00;;
52564;SDS011;38460;53.106;7.004;2022-09-02T14:38:48;3.13;;;1.10;;
52564;SDS011;38460;53.106;7.004;2022-09-02T14:44:14;1.90;;;0.98;;
52564;SDS011;38460;53.106;7.004;2022-09-02T14:46:46;4.47;;;1.05;;
52564;SDS011;38460;53.106;7.004;2022-09-02T14:52:13;3.40;;;1.15;;
52564;SDS011;38460;53.106;7.004;2022-09-02T14:54:45;2.05;;;1.00;;
52564;SDS011;38460;53.106;7.004;2022-09-02T14:59:57;2.70;;;1.20;;
52564;SDS011;38460;53.106;7.004;2022-09-02T15:04:58;3.20;;;1.63;;
52564;SDS011;38460;53.106;7.004;2022-09-02T15:07:26;4.03;;;1.15;;
52564;SDS011;38460;53.106;7.004;2022-09-02T15:09:52;3.80;;;1.10;;
52564;SDS011;38460;53.106;7.004;2022-09-02T15:12:18;5.03;;;1.20;;
52564;SDS011;38460;53.106;7.004;2022-09-02T15:14:51;2.67;;;1.07;;
52564;SDS011;38460;53.106;7.004;2022-09-02T15:17:18;2.97;;;1.45;;
52564;SDS011;38460;53.106;7.004;2022-09-02T15:19:44;4.57;;;1.27;;
52564;SDS011;38460;53.106;7.004;2022-09-02T15:22:10;4.90;;;1.17;;
52564;SDS011;38460;53.106;7.004;2022-09-02T15:24:37;3.75;;;1.30;;
52564;SDS011;38460;53.106;7.004;2022-09-02T15:27:03;2.88;;;1.20;;
52564;SDS011;38460;53.106;7.004;2022-09-02T15:29:29;3.50;;;1.23;;
52564;SDS011;38460;53.106;7.004;2022-09-02T15:31:55;2.58;;;1.25;;
52564;SDS011;38460;53.106;7.004;2022-09-02T15:34:21;2.65;;;1.33;;
52564;SDS011;38460;53.106;7.004;2022-09-02T15:36:47;3.25;;;1.30;;
52564;SDS011;38460;53.106;7.004;2022-09-02T15:39:13;4.03;;;1.45;;
52564;SDS011;38460;53.106;7.004;2022-09-02T15:41:41;4.13;;;1.20;;
52564;SDS011;38460;53.106;7.004;2022-09-02T15:44:08;3.83;;;1.48;;
52564;SDS011;38460;53.106;7.004;2022-09-02T15:46:35;5.15;;;1.52;;
52564;SDS011;38460;53.106;7.004;2022-09-02T15:49:02;3.22;;;1.27;;
52564;SDS011;38460;53.106;7.004;2022-09-02T15:51:30;1.92;;;1.00;;
52564;SDS011;38460;53.106;7.004;2022-09-02T15:53:57;3.38;;;1.30;;
52564;SDS011;38460;53.106;7.004;2022-09-02T15:59:01;2.95;;;1.42;;
52564;SDS011;38460;53.106;7.004;2022-09-02T16:01:36;2.55;;;1.23;;
52564;SDS011;38460;53.106;7.004;2022-09-02T16:04:04;2.70;;;1.17;;
52564;SDS011;38460;53.106;7.004;2022-09-02T16:06:32;5.72;;;1.55;;
52564;SDS011;38460;53.106;7.004;2022-09-02T16:09:00;3.88;;;1.50;;
52564;SDS011;38460;53.106;7.004;2022-09-02T16:11:26;2.53;;;1.33;;
52564;SDS011;38460;53.106;7.004;2022-09-02T16:13:52;3.97;;;1.63;;
52564;SDS011;38460;53.106;7.004;2022-09-02T16:16:18;2.83;;;1.50;;
52564;SDS011;38460;53.106;7.004;2022-09-02T16:18:48;3.08;;;1.42;;
52564;SDS011;38460;53.106;7.004;2022-09-02T16:21:15;6.78;;;2.00;;
52564;SDS011;38460;53.106;7.004;2022-09-02T16:23:41;3.60;;;1.60;;
52564;SDS011;38460;53.106;7.004;2022-09-02T16:28:46;4.88;;;1.73;;
52564;SDS011;38460;53.106;7.004;2022-09-02T16:31:13;4.40;;;1.67;;
52564;SDS011;38460;53.106;7.004;2022-09-02T16:33:42;3.53;;;1.50;;
52564;SDS011;38460;53.106;7.004;2022-09-02T16:36:09;3.95;;;1.33;;
52564;SDS011;38460;53.106;7.004;2022-09-02T16:38:35;5.40;;;1.95;;
52564;SDS011;38460;53.106;7.004;2022-09-02T16:41:01;3.03;;;1.38;;
52564;SDS011;38460;53.106;7.004;2022-09-02T16:43:29;3.83;;;1.58;;
52564;SDS011;38460;53.106;7.004;2022-09-02T16:45:57;3.72;;;1.60;;
52564;SDS011;38460;53.106;7.004;2022-09-02T16:48:28;4.32;;;1.75;;
52564;SDS011;38460;53.106;7.004;2022-09-02T16:51:00;5.00;;;1.47;;
52564;SDS011;38460;53.106;7.004;2022-09-02T16:53:27;1.70;;;1.15;;
52564;SDS011;38460;53.106;7.004;2022-09-02T16:55:53;1.60;;;1.05;;
52564;SDS011;38460;53.106;7.004;2022-09-02T16:58:19;3.08;;;1.50;;
52564;SDS011;38460;53.106;7.004;2022-09-02T17:00:45;2.47;;;1.10;;
52564;SDS011;38460;53.106;7.004;2022-09-02T17:03:11;1.65;;;1.05;;
52564;SDS011;38460;53.106;7.004;2022-09-02T17:05:37;3.50;;;1.40;;
52564;SDS011;38460;53.106;7.004;2022-09-02T17:08:03;2.88;;;1.30;;
52564;SDS011;38460;53.106;7.004;2022-09-02T17:10:31;3.00;;;1.35;;
52564;SDS011;38460;53.106;7.004;2022-09-02T17:12:58;2.53;;;1.45;;
52564;SDS011;38460;53.106;7.004;2022-09-02T17:15:25;4.43;;;1.05;;
52564;SDS011;38460;53.106;7.004;2022-09-02T17:17:53;2.58;;;1.13;;
52564;SDS011;38460;53.106;7.004;2022-09-02T17:20:19;3.70;;;1.80;;
52564;SDS011;38460;53.106;7.004;2022-09-02T17:22:46;3.13;;;1.35;;
52564;SDS011;38460;53.106;7.004;2022-09-02T17:25:12;4.00;;;1.88;;
52564;SDS011;38460;53.106;7.004;2022-09-02T17:27:38;4.20;;;1.20;;
52564;SDS011;38460;53.106;7.004;2022-09-02T17:30:05;3.15;;;1.30;;
52564;SDS011;38460;53.106;7.004;2022-09-02T17:32:32;3.85;;;1.30;;
52564;SDS011;38460;53.106;7.004;2022-09-02T17:34:59;3.25;;;1.25;;
52564;SDS011;38460;53.106;7.004;2022-09-02T17:37:26;3.55;;;1.20;;
52564;SDS011;38460;53.106;7.004;2022-09-02T17:39:52;3.45;;;1.38;;